Kawasaki, Japan
Current Conditions -  °F | °C
As of 5:00 PM on Thursday 27 Nov 2014 (Local Time) from RJTT Reporting Station
Scattered Clouds Scattered Clouds  
Wind Chill: 15°   Ceiling: Unl
Heat Index: 15°   Visibility: 6mi
Dew Point:   Wind: 1mph
Humidity: 67%   Direction: NA
Pressure: 30.15"   Gusts: NA
Location:  35.53°N, 139.7°E
Report Text: RJTT 270800Z VRB01KT 9999 FEW025 SCT/// 15/09 Q1021 BECMG 14006KT
Loading
Personal Weather Stations






























Interactive Weather Map New forecast layout! Learn more

10-Day Weather Forecast

Advertisements
Track Severe Weather on mobile